createdAt,value
2019-03-05T00:00:42.218Z,2.20
2019-03-05T00:01:42.212Z,2.40
2019-03-05T00:02:42.221Z,2.60
2019-03-05T00:03:42.205Z,2.50
2019-03-05T00:04:42.204Z,2.70
2019-03-05T00:05:42.398Z,2.40
2019-03-05T00:06:42.170Z,2.50
2019-03-05T00:07:42.181Z,2.10
2019-03-05T00:08:42.182Z,2.20
2019-03-05T00:09:42.174Z,2.60
2019-03-05T00:10:42.152Z,2.30
2019-03-05T00:11:42.342Z,2.30
2019-03-05T00:12:42.143Z,2.00
2019-03-05T00:13:42.132Z,2.60
2019-03-05T00:14:42.343Z,2.40
2019-03-05T00:15:42.336Z,2.70
2019-03-05T00:16:42.125Z,1.90
2019-03-05T00:17:42.103Z,2.20
2019-03-05T00:18:42.122Z,2.10
2019-03-05T00:19:42.086Z,2.40
2019-03-05T00:20:42.285Z,2.50
2019-03-05T00:21:42.277Z,2.20
2019-03-05T00:22:42.281Z,2.30
2019-03-05T00:23:42.064Z,2.20
2019-03-05T00:24:42.078Z,2.20
2019-03-05T00:25:42.053Z,2.20
2019-03-05T00:26:42.043Z,2.00
2019-03-05T00:27:42.045Z,2.00
2019-03-05T00:28:42.032Z,2.00
2019-03-05T00:29:42.228Z,2.20
2019-03-05T00:30:42.023Z,2.30
2019-03-05T00:31:42.027Z,2.30
2019-03-05T00:32:42.010Z,1.90
2019-03-05T00:33:41.998Z,2.10
2019-03-05T00:34:42.199Z,1.80
2019-03-05T00:35:42.188Z,2.00
2019-03-05T00:36:42.188Z,2.30
2019-03-05T00:37:41.976Z,2.30
2019-03-05T00:38:41.975Z,2.40
2019-03-05T00:39:42.013Z,2.60
2019-03-05T00:40:41.948Z,2.20
2019-03-05T00:41:42.168Z,2.00
2019-03-05T00:42:41.957Z,2.60
2019-03-05T00:43:42.135Z,2.30
2019-03-05T00:44:41.935Z,2.10
2019-03-05T00:45:41.920Z,2.50
2019-03-05T00:46:41.927Z,2.20
2019-03-05T00:47:41.907Z,2.10
2019-03-05T00:48:41.902Z,2.00
2019-03-05T00:49:41.892Z,1.90
2019-03-05T00:50:41.901Z,2.20
2019-03-05T00:51:41.882Z,2.50
2019-03-05T00:52:42.073Z,2.40
2019-03-05T00:53:42.067Z,1.90
2019-03-05T00:54:42.065Z,1.80
2019-03-05T00:55:41.875Z,2.20
2019-03-05T00:56:42.074Z,2.40
2019-03-05T00:57:41.845Z,2.00
2019-03-05T00:58:42.050Z,2.30
2019-03-05T00:59:41.826Z,2.00
2019-03-05T01:00:41.835Z,2.30
2019-03-05T01:01:41.822Z,2.30
2019-03-05T01:02:41.812Z,2.40
2019-03-05T01:03:41.805Z,2.10
2019-03-05T01:04:41.797Z,2.10
2019-03-05T01:05:42.006Z,2.10
2019-03-05T01:06:41.789Z,1.80
2019-03-05T01:07:41.786Z,2.30
2019-03-05T01:08:41.784Z,2.60
2019-03-05T01:09:41.768Z,2.20
2019-03-05T01:10:41.765Z,2.50
2019-03-05T01:11:41.761Z,2.30
2019-03-05T01:12:41.749Z,2.70
2019-03-05T01:13:41.742Z,2.20
2019-03-05T01:14:41.738Z,2.20
2019-03-05T01:15:41.731Z,1.80
2019-03-05T01:16:41.735Z,1.90
2019-03-05T01:17:41.750Z,2.30
2019-03-05T01:18:41.710Z,2.00
2019-03-05T01:19:41.709Z,2.10
2019-03-05T01:20:41.700Z,2.00
2019-03-05T01:21:41.698Z,2.20
2019-03-05T01:22:41.697Z,1.80
2019-03-05T01:23:41.688Z,1.70
2019-03-05T01:24:41.667Z,1.70
2019-03-05T01:25:41.879Z,1.70
2019-03-05T01:26:41.652Z,1.50
2019-03-05T01:27:41.666Z,1.80
2019-03-05T01:28:41.663Z,1.70
2019-03-05T01:29:41.655Z,1.60
2019-03-05T01:30:41.840Z,1.40
2019-03-05T01:31:41.627Z,1.70
2019-03-05T01:32:41.614Z,2.10
2019-03-05T01:33:41.830Z,1.70
2019-03-05T01:34:41.615Z,1.40
2019-03-05T01:35:41.618Z,1.40
2019-03-05T01:36:41.599Z,1.20
2019-03-05T01:37:41.786Z,1.20
2019-03-05T01:38:41.587Z,0.90
2019-03-05T01:39:41.583Z,0.90
2019-03-05T01:40:41.578Z,1.10
2019-03-05T01:41:41.563Z,0.90
2019-03-05T01:42:41.776Z,1.00
2019-03-05T01:43:41.748Z,0.90
2019-03-05T01:44:41.542Z,0.80
2019-03-05T01:45:41.753Z,0.90
2019-03-05T01:46:41.545Z,0.80
2019-03-05T01:47:41.745Z,0.80
2019-03-05T01:48:41.530Z,0.70
2019-03-05T01:49:41.520Z,0.80
2019-03-05T01:50:41.507Z,0.80
2019-03-05T01:51:41.490Z,0.80
2019-03-05T01:52:41.493Z,0.90
2019-03-05T01:53:41.490Z,0.80
2019-03-05T01:54:41.687Z,0.80
2019-03-05T01:55:41.465Z,0.70
2019-03-05T01:56:41.462Z,0.90
2019-03-05T01:57:41.466Z,0.70
2019-03-05T01:58:41.660Z,0.80
2019-03-05T01:59:41.650Z,0.90
2019-03-05T02:00:41.431Z,0.90
2019-03-05T02:01:41.430Z,0.80
2019-03-05T02:02:41.418Z,0.80
2019-03-05T02:03:41.417Z,0.90
2019-03-05T02:04:41.408Z,0.60
2019-03-05T02:05:41.413Z,0.90
2019-03-05T02:06:41.397Z,0.90
2019-03-05T02:07:41.387Z,0.80
2019-03-05T02:08:41.384Z,0.80
2019-03-05T02:09:41.393Z,0.90
2019-03-05T02:10:41.373Z,0.90
2019-03-05T02:11:41.374Z,0.90
2019-03-05T02:12:41.357Z,1.00
2019-03-05T02:13:41.347Z,0.80
2019-03-05T02:14:41.558Z,0.90
2019-03-05T02:15:41.337Z,0.90
2019-03-05T02:16:41.333Z,0.90
2019-03-05T02:17:41.596Z,0.80
2019-03-05T02:18:41.313Z,1.00
2019-03-05T02:19:41.308Z,1.00
2019-03-05T02:20:41.307Z,1.00
2019-03-05T02:21:41.296Z,1.00
2019-03-05T02:22:41.283Z,1.00
2019-03-05T02:23:47.593Z,0.90
2019-03-05T02:24:41.282Z,1.00
2019-03-05T02:25:41.518Z,1.00
2019-03-05T02:26:41.277Z,0.90
2019-03-05T02:27:41.255Z,1.00
2019-03-05T02:28:41.249Z,1.10
2019-03-05T02:29:41.237Z,0.90
2019-03-05T02:30:41.230Z,0.90
2019-03-05T02:31:41.225Z,1.20
2019-03-05T02:32:41.224Z,1.10
2019-03-05T02:33:41.243Z,1.10
2019-03-05T02:34:41.206Z,1.00
2019-03-05T02:35:41.201Z,1.40
2019-03-05T02:36:41.192Z,1.20
2019-03-05T02:37:41.195Z,1.10
2019-03-05T02:38:41.194Z,1.10
2019-03-05T02:39:41.191Z,1.20
2019-03-05T02:40:41.183Z,1.30
2019-03-05T02:41:41.156Z,1.40
2019-03-05T02:42:41.165Z,1.20
2019-03-05T02:43:41.154Z,1.30
2019-03-05T02:44:41.158Z,1.20
2019-03-05T02:45:41.147Z,1.20
2019-03-05T02:46:41.126Z,1.30
2019-03-05T02:47:41.123Z,1.20
2019-03-05T02:48:41.123Z,1.50
2019-03-05T02:49:41.099Z,1.50
2019-03-05T02:50:41.128Z,1.40
2019-03-05T02:51:41.092Z,1.30
2019-03-05T02:52:41.086Z,1.50
2019-03-05T02:53:41.076Z,1.40
2019-03-05T02:54:41.068Z,1.50
2019-03-05T02:55:41.303Z,1.50
2019-03-05T02:56:41.073Z,1.40
2019-03-05T02:57:41.055Z,1.50
2019-03-05T02:58:41.255Z,1.30
2019-03-05T02:59:41.252Z,1.20
2019-03-05T03:00:41.033Z,1.20
2019-03-05T03:01:41.023Z,1.20
2019-03-05T03:02:41.015Z,1.20
2019-03-05T03:03:41.211Z,1.20
2019-03-05T03:04:41.019Z,1.40
2019-03-05T03:05:41.197Z,1.40
2019-03-05T03:06:40.987Z,1.40
2019-03-05T03:07:40.976Z,1.20
2019-03-05T03:08:41.198Z,1.50
2019-03-05T03:09:40.972Z,1.50
2019-03-05T03:10:41.180Z,1.50
2019-03-05T03:11:40.954Z,1.30
2019-03-05T03:12:40.948Z,1.30
2019-03-05T03:13:41.138Z,1.50
2019-03-05T03:14:40.938Z,1.50
2019-03-05T03:15:40.932Z,1.30
2019-03-05T03:16:40.920Z,1.60
2019-03-05T03:17:40.917Z,1.40
2019-03-05T03:18:40.922Z,1.50
2019-03-05T03:19:40.893Z,1.50
2019-03-05T03:20:41.098Z,1.60
2019-03-05T03:21:40.895Z,1.40
2019-03-05T03:22:40.881Z,1.50
2019-03-05T03:23:40.887Z,1.40
2019-03-05T03:24:40.863Z,1.40
2019-03-05T03:25:40.863Z,1.60
2019-03-05T03:26:40.862Z,1.30
2019-03-05T03:27:40.842Z,1.40
2019-03-05T03:28:41.039Z,1.50
2019-03-05T03:29:40.833Z,1.50
2019-03-05T03:30:40.820Z,1.40
2019-03-05T03:31:40.881Z,1.20
2019-03-05T03:32:41.010Z,1.50
2019-03-05T03:33:41.022Z,1.40
2019-03-05T03:34:40.996Z,1.40
2019-03-05T03:35:40.988Z,1.50
2019-03-05T03:36:40.796Z,1.80
2019-03-05T03:37:40.793Z,1.50
2019-03-05T03:38:40.761Z,1.30
2019-03-05T03:39:40.966Z,1.60
2019-03-05T03:40:40.814Z,1.60
2019-03-05T03:41:40.954Z,1.40
2019-03-05T03:42:40.949Z,1.70
2019-03-05T03:43:40.743Z,1.70
2019-03-05T03:44:40.928Z,1.60
2019-03-05T03:45:40.717Z,1.40
2019-03-05T03:46:40.708Z,1.70
2019-03-05T03:47:40.919Z,1.50
2019-03-05T03:48:40.701Z,1.70
2019-03-05T03:49:40.728Z,1.90
2019-03-05T03:50:40.682Z,2.00
2019-03-05T03:51:40.895Z,1.60
2019-03-05T03:52:40.878Z,1.60
2019-03-05T03:53:40.672Z,1.60
2019-03-05T03:54:40.661Z,1.60
2019-03-05T03:55:40.646Z,1.60
2019-03-05T03:56:40.647Z,1.70
2019-03-05T03:57:40.653Z,1.40
2019-03-05T03:58:40.832Z,1.80
2019-03-05T03:59:40.829Z,1.60
2019-03-05T04:00:40.631Z,1.50
2019-03-05T04:01:40.823Z,1.70
2019-03-05T04:02:40.600Z,1.60
2019-03-05T04:03:40.820Z,1.60
2019-03-05T04:04:40.603Z,1.30
2019-03-05T04:05:40.605Z,1.40
2019-03-05T04:06:40.783Z,1.30
2019-03-05T04:07:40.587Z,1.60
2019-03-05T04:08:40.594Z,1.20
2019-03-05T04:09:40.770Z,1.10
2019-03-05T04:10:40.755Z,1.30
2019-03-05T04:11:40.558Z,1.40
2019-03-05T04:12:40.742Z,1.30
2019-03-05T04:13:40.737Z,1.30
2019-03-05T04:14:40.537Z,1.40
2019-03-05T04:15:40.520Z,1.00
2019-03-05T04:16:40.511Z,1.10
2019-03-05T04:17:40.730Z,1.30
2019-03-05T04:18:40.501Z,1.30
2019-03-05T04:19:40.498Z,1.10
2019-03-05T04:20:40.493Z,1.30
2019-03-05T04:21:40.495Z,1.10
2019-03-05T04:22:40.471Z,1.00
2019-03-05T04:23:40.461Z,1.30
2019-03-05T04:24:40.499Z,1.20
2019-03-05T04:25:40.459Z,1.40
2019-03-05T04:26:40.454Z,1.10
2019-03-05T04:27:40.440Z,1.40
2019-03-05T04:28:40.427Z,1.30
2019-03-05T04:29:40.473Z,1.20
2019-03-05T04:30:40.416Z,1.30
2019-03-05T04:31:40.416Z,1.40
2019-03-05T04:32:40.399Z,1.10
2019-03-05T04:33:40.395Z,1.40
2019-03-05T04:34:40.396Z,1.30
2019-03-05T04:35:40.393Z,1.20
2019-03-05T04:36:40.580Z,1.40
2019-03-05T04:37:40.404Z,1.30
2019-03-05T04:38:40.375Z,1.30
2019-03-05T04:39:40.348Z,1.40
2019-03-05T04:40:40.554Z,1.40
2019-03-05T04:41:40.547Z,1.50
2019-03-05T04:42:40.536Z,1.40
2019-03-05T04:43:40.337Z,1.50
2019-03-05T04:44:40.321Z,1.60
2019-03-05T04:45:40.323Z,1.40
2019-03-05T04:46:40.511Z,1.80
2019-03-05T04:47:40.313Z,1.40
2019-03-05T04:48:40.299Z,1.50
2019-03-05T04:49:40.282Z,1.60
2019-03-05T04:50:40.293Z,1.90
2019-03-05T04:51:40.490Z,1.60
2019-03-05T04:52:40.263Z,1.60
2019-03-05T04:53:40.255Z,1.50
2019-03-05T04:54:40.258Z,1.90
2019-03-05T04:55:40.254Z,1.70
2019-03-05T04:56:40.237Z,1.50
2019-03-05T04:57:40.252Z,1.50
2019-03-05T04:58:40.226Z,1.40
2019-03-05T04:59:40.232Z,1.60
2019-03-05T05:00:40.667Z,1.50
2019-03-05T05:01:40.207Z,1.40
2019-03-05T05:02:40.400Z,1.60
2019-03-05T05:03:40.192Z,1.50
2019-03-05T05:04:40.204Z,1.40
2019-03-05T05:05:40.180Z,1.70
2019-03-05T05:06:40.189Z,1.70
2019-03-05T05:07:40.182Z,1.40
2019-03-05T05:08:40.153Z,1.50
2019-03-05T05:09:40.167Z,1.50
2019-03-05T05:10:40.143Z,1.60
2019-03-05T05:11:40.140Z,1.50
2019-03-05T05:12:40.338Z,1.60
2019-03-05T05:13:40.130Z,1.30
2019-03-05T05:14:40.137Z,1.30
2019-03-05T05:15:40.175Z,1.30
2019-03-05T05:16:40.126Z,1.40
2019-03-05T05:17:40.104Z,1.60
2019-03-05T05:18:40.378Z,1.40
2019-03-05T05:19:40.109Z,1.40
2019-03-05T05:20:40.114Z,1.40
2019-03-05T05:21:40.092Z,1.30
2019-03-05T05:22:40.069Z,1.30
2019-03-05T05:23:40.086Z,1.50
2019-03-05T05:24:40.057Z,1.50
2019-03-05T05:25:40.048Z,1.40
2019-03-05T05:26:40.040Z,1.40
2019-03-05T05:27:40.236Z,1.40
2019-03-05T05:28:40.037Z,1.40
2019-03-05T05:29:40.020Z,1.30
2019-03-05T05:30:40.020Z,1.30
2019-03-05T05:31:40.014Z,1.40
2019-03-05T05:32:40.007Z,1.30
2019-03-05T05:33:39.996Z,1.30
2019-03-05T05:34:40.188Z,1.40
2019-03-05T05:35:40.185Z,1.20
2019-03-05T05:36:39.988Z,1.30
2019-03-05T05:37:39.967Z,1.40
2019-03-05T05:38:40.164Z,1.20
2019-03-05T05:39:39.963Z,1.30
2019-03-05T05:40:39.957Z,1.50
2019-03-05T05:41:39.943Z,1.40
2019-03-05T05:42:39.939Z,1.10
2019-03-05T05:43:40.133Z,1.20
2019-03-05T05:44:40.124Z,1.10
2019-03-05T05:45:39.914Z,1.30
2019-03-05T05:46:39.912Z,1.10
2019-03-05T05:47:39.917Z,1.30
2019-03-05T05:48:39.893Z,1.40
2019-03-05T05:49:39.894Z,1.40
2019-03-05T05:50:39.889Z,1.40
2019-03-05T05:51:39.883Z,1.40
2019-03-05T05:52:40.079Z,1.50
2019-03-05T05:53:39.876Z,1.70
2019-03-05T05:54:40.064Z,1.30
2019-03-05T05:55:39.853Z,1.40
2019-03-05T05:56:40.050Z,1.40
2019-03-05T05:57:39.858Z,1.70
2019-03-05T05:58:39.844Z,1.30
2019-03-05T05:59:39.824Z,1.40
2019-03-05T06:00:39.832Z,1.30
2019-03-05T06:01:40.024Z,1.40
2019-03-05T06:02:39.797Z,1.40
2019-03-05T06:03:39.865Z,1.20
2019-03-05T06:04:39.785Z,1.10
2019-03-05T06:05:39.993Z,1.30
2019-03-05T06:06:39.792Z,1.20
2019-03-05T06:07:39.991Z,1.30
2019-03-05T06:08:39.766Z,1.20
2019-03-05T06:09:39.760Z,1.50
2019-03-05T06:10:39.764Z,1.40
2019-03-05T06:11:39.966Z,1.30
2019-03-05T06:12:39.744Z,1.40
2019-03-05T06:13:39.748Z,1.60
2019-03-05T06:14:39.734Z,1.60
2019-03-05T06:15:39.737Z,1.30
2019-03-05T06:16:39.719Z,1.50
2019-03-05T06:17:39.731Z,1.50
2019-03-05T06:18:39.733Z,1.60
2019-03-05T06:19:39.693Z,1.60
2019-03-05T06:20:42.442Z,1.80
2019-03-05T06:21:39.680Z,1.70
2019-03-05T06:22:39.678Z,1.80
2019-03-05T06:23:39.675Z,1.80
2019-03-05T06:24:39.659Z,2.30
2019-03-05T06:25:39.852Z,2.20
2019-03-05T06:26:39.645Z,2.10
2019-03-05T06:27:39.638Z,2.20
2019-03-05T06:28:39.630Z,2.50
2019-03-05T06:29:39.826Z,2.20
2019-03-05T06:30:39.812Z,2.20
2019-03-05T06:31:39.815Z,2.10
2019-03-05T06:32:39.606Z,2.60
2019-03-05T06:33:39.802Z,2.30
2019-03-05T06:34:39.600Z,2.60
2019-03-05T06:35:39.583Z,2.60
2019-03-05T06:36:39.575Z,2.40
2019-03-05T06:37:39.587Z,2.20
2019-03-05T06:38:39.562Z,2.60
2019-03-05T06:39:39.559Z,2.60
2019-03-05T06:40:39.546Z,2.50
2019-03-05T06:41:39.542Z,2.20
2019-03-05T06:42:39.554Z,2.20
2019-03-05T06:43:39.553Z,2.30
2019-03-05T06:44:39.521Z,2.20
2019-03-05T06:45:39.516Z,1.90
2019-03-05T06:46:39.509Z,2.00
2019-03-05T06:47:39.505Z,2.20
2019-03-05T06:48:39.500Z,2.00
2019-03-05T06:49:39.482Z,2.20
2019-03-05T06:50:39.484Z,2.40
2019-03-05T06:51:39.469Z,2.20
2019-03-05T06:52:39.461Z,2.00
2019-03-05T06:53:39.462Z,1.90
2019-03-05T06:54:39.666Z,2.30
2019-03-05T06:55:39.649Z,2.50
2019-03-05T06:56:39.431Z,2.40
2019-03-05T06:57:39.423Z,2.00
2019-03-05T06:58:39.421Z,2.00
2019-03-05T06:59:39.422Z,2.40
2019-03-05T07:00:39.433Z,2.40
2019-03-05T07:01:39.398Z,2.60
2019-03-05T07:02:39.420Z,2.60
2019-03-05T07:03:39.601Z,2.60
2019-03-05T07:04:39.586Z,2.60
2019-03-05T07:05:39.382Z,2.70
2019-03-05T07:06:39.368Z,2.40
2019-03-05T07:07:39.370Z,2.50
2019-03-05T07:08:39.359Z,2.10
2019-03-05T07:09:39.344Z,2.40
2019-03-05T07:10:39.340Z,2.60
2019-03-05T07:11:39.354Z,2.60
2019-03-05T07:12:39.339Z,2.10
2019-03-05T07:13:39.534Z,2.40
2019-03-05T07:14:39.528Z,2.40
2019-03-05T07:15:39.307Z,2.40
2019-03-05T07:16:39.514Z,2.50
2019-03-05T07:17:39.303Z,2.80
2019-03-05T07:18:39.488Z,2.80
2019-03-05T07:19:39.496Z,2.80
2019-03-05T07:20:39.275Z,2.80
2019-03-05T07:21:39.256Z,2.40
2019-03-05T07:22:39.253Z,2.80
2019-03-05T07:23:39.265Z,3.10
2019-03-05T07:24:39.252Z,2.90
2019-03-05T07:25:39.276Z,2.80
2019-03-05T07:26:39.242Z,2.90
2019-03-05T07:27:39.444Z,2.70
2019-03-05T07:28:39.419Z,2.40
2019-03-05T07:29:39.207Z,2.50
2019-03-05T07:30:39.219Z,2.10
2019-03-05T07:31:39.208Z,1.60
2019-03-05T07:32:39.391Z,1.50
2019-03-05T07:33:39.180Z,1.50
2019-03-05T07:34:39.187Z,1.60
2019-03-05T07:35:39.167Z,1.60
2019-03-05T07:36:39.167Z,1.70
2019-03-05T07:37:39.160Z,1.70
2019-03-05T07:38:39.153Z,1.80
2019-03-05T07:39:39.137Z,1.70
2019-03-05T07:40:39.146Z,1.90
2019-03-05T07:41:39.132Z,1.90
2019-03-05T07:42:39.123Z,2.00
2019-03-05T07:43:39.125Z,2.20
2019-03-05T07:44:39.115Z,2.10
2019-03-05T07:45:39.115Z,1.80
2019-03-05T07:46:39.089Z,2.10
2019-03-05T07:47:39.294Z,2.30
2019-03-05T07:48:39.077Z,2.40
2019-03-05T07:49:43.731Z,2.60
2019-03-05T07:50:39.081Z,2.50
2019-03-05T07:51:39.081Z,2.10
2019-03-05T07:52:39.064Z,2.10
2019-03-05T07:53:39.044Z,2.50
2019-03-05T07:54:39.243Z,2.60
2019-03-05T07:55:39.248Z,2.30
2019-03-05T07:56:39.028Z,2.60
2019-03-05T07:57:39.028Z,2.50
2019-03-05T07:58:39.225Z,2.50
2019-03-05T07:59:39.013Z,2.40
2019-03-05T08:00:39.009Z,2.40
2019-03-05T08:01:38.999Z,2.60
2019-03-05T08:02:38.982Z,2.60
2019-03-05T08:03:39.187Z,3.30
2019-03-05T08:04:38.969Z,2.90
2019-03-05T08:05:39.174Z,2.60
2019-03-05T08:06:38.967Z,2.90
2019-03-05T08:07:38.947Z,2.90
2019-03-05T08:08:38.975Z,2.90
2019-03-05T08:09:38.996Z,2.70
2019-03-05T08:10:38.940Z,3.00
2019-03-05T08:11:38.932Z,3.10
2019-03-05T08:12:38.933Z,3.10
2019-03-05T08:13:38.919Z,3.20
2019-03-05T08:14:38.914Z,3.20
2019-03-05T08:15:38.908Z,3.00
2019-03-05T08:16:38.901Z,3.40
2019-03-05T08:17:38.904Z,3.30
2019-03-05T08:18:38.902Z,3.40
2019-03-05T08:19:38.871Z,3.30
2019-03-05T08:20:38.867Z,3.50
2019-03-05T08:21:38.863Z,3.90
2019-03-05T08:22:38.847Z,3.80
2019-03-05T08:23:38.843Z,4.20
2019-03-05T08:24:38.833Z,4.00
2019-03-05T08:25:38.829Z,4.00
2019-03-05T08:26:38.818Z,3.60
2019-03-05T08:27:38.824Z,4.10
2019-03-05T08:28:38.851Z,3.80
2019-03-05T08:29:39.016Z,4.00
2019-03-05T08:30:38.993Z,3.50
2019-03-05T08:31:38.795Z,4.40
2019-03-05T08:32:39.018Z,4.00
2019-03-05T08:33:38.787Z,4.10
2019-03-05T08:34:38.970Z,4.30
2019-03-05T08:35:38.769Z,4.10
2019-03-05T08:36:38.768Z,4.10
2019-03-05T08:37:38.755Z,4.10
2019-03-05T08:38:38.955Z,4.10
2019-03-05T08:39:38.745Z,4.70
2019-03-05T08:40:38.940Z,5.00
2019-03-05T08:41:38.719Z,4.40
2019-03-05T08:42:38.720Z,4.50
2019-03-05T08:43:38.710Z,4.60
2019-03-05T08:44:49.693Z,4.70
2019-03-05T08:45:38.700Z,4.20
2019-03-05T08:46:38.687Z,5.30
2019-03-05T08:47:38.880Z,5.30
2019-03-05T08:48:38.671Z,5.10
2019-03-05T08:49:38.893Z,5.40
2019-03-05T08:50:38.653Z,5.70
2019-03-05T08:51:38.669Z,5.50
2019-03-05T08:52:38.654Z,5.60
2019-03-05T08:53:48.974Z,5.60
2019-03-05T08:54:38.630Z,5.40
2019-03-05T08:55:38.634Z,6.10
2019-03-05T08:56:38.615Z,5.60
2019-03-05T08:57:38.619Z,6.20
2019-03-05T08:58:38.804Z,6.10
2019-03-05T08:59:38.614Z,6.60
2019-03-05T09:00:38.597Z,6.60
2019-03-05T09:01:38.584Z,6.10
2019-03-05T09:02:48.069Z,6.60
2019-03-05T09:03:38.574Z,7.00
2019-03-05T09:04:38.567Z,6.80
2019-03-05T09:05:38.564Z,6.40
2019-03-05T09:06:38.548Z,7.00
2019-03-05T09:07:38.568Z,7.00
2019-03-05T09:08:38.645Z,7.40
2019-03-05T09:09:38.558Z,7.90
2019-03-05T09:10:38.542Z,7.10
2019-03-05T09:11:38.725Z,7.30
2019-03-05T09:12:38.740Z,7.20
2019-03-05T09:13:38.515Z,6.90
2019-03-05T09:14:38.515Z,8.10
2019-03-05T09:15:38.491Z,8.20
2019-03-05T09:16:38.700Z,7.30
2019-03-05T09:17:38.471Z,8.10
2019-03-05T09:18:38.475Z,7.70
2019-03-05T09:19:38.462Z,8.40
2019-03-05T09:20:38.467Z,7.70
2019-03-05T09:21:38.449Z,8.50
2019-03-05T09:22:38.459Z,8.30
2019-03-05T09:23:38.442Z,8.20
2019-03-05T09:24:38.435Z,8.10
2019-03-05T09:25:38.436Z,7.90
2019-03-05T09:26:38.428Z,8.40
2019-03-05T09:27:38.408Z,8.70
2019-03-05T09:28:38.428Z,8.50
2019-03-05T09:29:38.406Z,8.20
2019-03-05T09:30:38.429Z,7.70
2019-03-05T09:31:38.387Z,8.00
2019-03-05T09:32:38.394Z,7.50
2019-03-05T09:33:38.588Z,8.00
2019-03-05T09:34:38.367Z,7.70
2019-03-05T09:35:38.358Z,8.00
2019-03-05T09:36:38.549Z,8.30
2019-03-05T09:37:38.344Z,7.30
2019-03-05T09:38:38.546Z,7.80
2019-03-05T09:39:38.556Z,8.00
2019-03-05T09:40:38.336Z,7.80
2019-03-05T09:41:38.324Z,7.30
2019-03-05T09:42:40.203Z,7.20
2019-03-05T09:43:38.326Z,7.10
2019-03-05T09:44:38.321Z,7.00
2019-03-05T09:45:38.293Z,7.60
2019-03-05T09:46:38.298Z,6.80
2019-03-05T09:47:38.283Z,7.10
2019-03-05T09:48:38.281Z,7.30
2019-03-05T09:49:38.271Z,6.60
2019-03-05T09:50:38.274Z,6.70
2019-03-05T09:51:38.465Z,6.90
2019-03-05T09:52:38.248Z,6.70
2019-03-05T09:53:38.247Z,6.30
2019-03-05T09:54:38.244Z,6.40
2019-03-05T09:55:38.427Z,6.30
2019-03-05T09:56:38.223Z,6.10
2019-03-05T09:57:38.413Z,6.10
2019-03-05T09:58:38.405Z,6.20
2019-03-05T09:59:38.405Z,5.50
2019-03-05T10:00:38.201Z,6.20
2019-03-05T10:01:38.190Z,5.70
2019-03-05T10:02:38.183Z,5.50
2019-03-05T10:03:38.186Z,4.90
2019-03-05T10:04:38.176Z,5.50
2019-03-05T10:05:38.171Z,4.30
2019-03-05T10:06:38.168Z,5.00
2019-03-05T10:07:38.151Z,4.30
2019-03-05T10:08:38.139Z,4.50
2019-03-05T10:09:38.130Z,4.80
2019-03-05T10:10:38.127Z,4.10
2019-03-05T10:11:38.120Z,3.70
2019-03-05T10:12:38.109Z,4.00
2019-03-05T10:13:38.315Z,4.10
2019-03-05T10:14:38.114Z,4.30
2019-03-05T10:15:38.105Z,4.00
2019-03-05T10:16:38.084Z,4.40
2019-03-05T10:17:38.364Z,4.20
2019-03-05T10:18:39.383Z,4.00
2019-03-05T10:19:38.610Z,3.80
2019-03-05T10:20:38.063Z,3.40
2019-03-05T10:21:45.808Z,3.80
2019-03-05T10:22:38.047Z,3.30
2019-03-05T10:23:38.039Z,3.00
2019-03-05T10:24:38.039Z,3.20
2019-03-05T10:25:38.036Z,3.70
2019-03-05T10:26:38.055Z,3.30
2019-03-05T10:27:38.226Z,3.40
2019-03-05T10:28:38.031Z,3.30
2019-03-05T10:29:38.012Z,3.10
2019-03-05T10:30:38.026Z,3.10
2019-03-05T10:31:38.059Z,2.50
2019-03-05T10:32:37.985Z,2.60
2019-03-05T10:33:38.004Z,2.70
2019-03-05T10:34:38.004Z,2.70
2019-03-05T10:35:37.967Z,2.40
2019-03-05T10:36:37.991Z,2.10
2019-03-05T10:37:37.966Z,2.30
2019-03-05T10:38:37.953Z,2.30
2019-03-05T10:39:37.949Z,1.80
2019-03-05T10:40:38.143Z,1.90
2019-03-05T10:41:37.933Z,2.10
2019-03-05T10:42:37.951Z,2.00
2019-03-05T10:43:37.928Z,1.90
2019-03-05T10:44:37.915Z,2.30
2019-03-05T10:45:37.900Z,2.00
2019-03-05T10:46:37.900Z,2.00
2019-03-05T10:47:37.895Z,2.00
2019-03-05T10:48:37.888Z,1.80
2019-03-05T10:49:37.922Z,2.20
2019-03-05T10:50:37.870Z,1.90
2019-03-05T10:51:38.063Z,2.00
2019-03-05T10:52:38.064Z,1.60
2019-03-05T10:53:38.070Z,1.80
2019-03-05T10:54:37.848Z,1.70
2019-03-05T10:55:37.848Z,1.50
2019-03-05T10:56:38.033Z,1.60
2019-03-05T10:57:37.827Z,1.60
2019-03-05T10:58:37.821Z,1.40
2019-03-05T10:59:37.815Z,1.40
2019-03-05T11:00:37.818Z,1.50
2019-03-05T11:01:37.808Z,1.50
2019-03-05T11:02:38.025Z,1.50
2019-03-05T11:03:37.787Z,1.50
2019-03-05T11:04:45.443Z,1.30
2019-03-05T11:05:37.777Z,1.40
2019-03-05T11:06:37.783Z,1.00
2019-03-05T11:07:37.775Z,1.30
2019-03-05T11:08:37.961Z,1.30
2019-03-05T11:09:37.949Z,1.40
2019-03-05T11:10:37.955Z,1.10
2019-03-05T11:11:37.753Z,1.40
2019-03-05T11:12:37.727Z,1.50
2019-03-05T11:13:37.735Z,1.70
2019-03-05T11:14:37.718Z,1.80
2019-03-05T11:15:37.710Z,1.60
2019-03-05T11:16:37.709Z,1.90
2019-03-05T11:17:37.718Z,1.70
2019-03-05T11:18:37.692Z,2.10
2019-03-05T11:19:37.886Z,1.70
2019-03-05T11:20:37.704Z,2.20
2019-03-05T11:21:37.671Z,2.10
2019-03-05T11:22:37.677Z,2.30
2019-03-05T11:23:37.657Z,1.80
2019-03-05T11:24:37.651Z,1.90
2019-03-05T11:25:37.661Z,2.20
2019-03-05T11:26:37.663Z,2.30
2019-03-05T11:27:37.637Z,2.40
2019-03-05T11:28:37.644Z,2.10
2019-03-05T11:29:37.627Z,2.00
2019-03-05T11:30:37.833Z,2.70
2019-03-05T11:31:37.625Z,2.50
2019-03-05T11:32:37.609Z,2.40
2019-03-05T11:33:37.832Z,2.10
2019-03-05T11:34:37.591Z,2.20
2019-03-05T11:35:37.620Z,2.10
2019-03-05T11:36:37.580Z,2.30
2019-03-05T11:37:37.571Z,2.30
2019-03-05T11:38:37.572Z,2.00
2019-03-05T11:39:37.768Z,2.00
2019-03-05T11:40:37.584Z,2.50
2019-03-05T11:41:37.566Z,2.00
2019-03-05T11:42:37.558Z,1.60
2019-03-05T11:43:37.540Z,1.80
2019-03-05T11:44:37.556Z,1.90
2019-03-05T11:45:37.525Z,1.90
2019-03-05T11:46:37.529Z,2.00
2019-03-05T11:47:37.528Z,1.90
2019-03-05T11:48:37.529Z,2.10
2019-03-05T11:49:37.513Z,1.80
2019-03-05T11:50:37.502Z,2.00
2019-03-05T11:51:37.492Z,1.80
2019-03-05T11:52:37.490Z,1.80
2019-03-05T11:53:37.480Z,1.80
2019-03-05T11:54:37.503Z,1.60
2019-03-05T11:55:37.679Z,1.60
2019-03-05T11:56:37.459Z,1.90
2019-03-05T11:57:37.667Z,2.10
2019-03-05T11:58:37.448Z,1.80
2019-03-05T11:59:37.642Z,1.80
2019-03-05T12:00:37.662Z,1.90
2019-03-05T12:01:37.430Z,2.20
2019-03-05T12:02:37.428Z,2.20
2019-03-05T12:03:37.421Z,1.60
2019-03-05T12:04:37.622Z,1.90
2019-03-05T12:05:37.419Z,1.70
2019-03-05T12:06:37.403Z,2.10
2019-03-05T12:07:37.402Z,2.00
2019-03-05T12:08:37.389Z,1.90
2019-03-05T12:09:37.384Z,1.70
2019-03-05T12:10:37.375Z,1.60
2019-03-05T12:11:37.372Z,1.90
2019-03-05T12:12:37.372Z,2.00
2019-03-05T12:13:37.366Z,2.10
2019-03-05T12:14:37.574Z,2.00
2019-03-05T12:15:37.346Z,1.90
2019-03-05T12:16:37.339Z,2.00
2019-03-05T12:17:37.346Z,2.40
2019-03-05T12:18:37.338Z,2.30
2019-03-05T12:19:37.323Z,2.80
2019-03-05T12:20:37.331Z,2.30
2019-03-05T12:21:37.322Z,2.00
2019-03-05T12:22:37.511Z,2.00
2019-03-05T12:23:37.314Z,2.00
2019-03-05T12:24:37.311Z,2.20
2019-03-05T12:25:39.867Z,2.20
2019-03-05T12:26:37.283Z,2.20
2019-03-05T12:27:37.282Z,2.70
2019-03-05T12:28:37.339Z,2.30
2019-03-05T12:29:37.269Z,2.00
2019-03-05T12:30:37.289Z,2.10
2019-03-05T12:31:37.256Z,1.60
2019-03-05T12:32:37.260Z,1.50
2019-03-05T12:33:37.261Z,1.70
2019-03-05T12:34:37.251Z,1.70
2019-03-05T12:35:37.252Z,1.70
2019-03-05T12:36:37.242Z,1.40
2019-03-05T12:37:37.223Z,1.40
2019-03-05T12:38:37.242Z,1.30
2019-03-05T12:39:37.209Z,1.40
2019-03-05T12:40:37.232Z,1.70
2019-03-05T12:41:37.207Z,1.70
2019-03-05T12:42:37.191Z,1.30
2019-03-05T12:43:37.187Z,1.40
2019-03-05T12:44:37.194Z,1.50
2019-03-05T12:45:37.171Z,1.20
2019-03-05T12:46:37.183Z,1.40
2019-03-05T12:47:37.159Z,1.30
2019-03-05T12:48:40.346Z,1.30
2019-03-05T12:49:37.159Z,1.20
2019-03-05T12:50:37.147Z,1.20
2019-03-05T12:51:37.168Z,1.20
2019-03-05T12:52:37.134Z,1.20
2019-03-05T12:53:37.142Z,1.20
2019-03-05T12:54:37.134Z,1.20
2019-03-05T12:55:37.125Z,1.20
2019-03-05T12:56:37.107Z,1.20
2019-03-05T12:57:37.120Z,1.50
2019-03-05T12:58:37.101Z,1.30
2019-03-05T12:59:37.107Z,1.40
2019-03-05T13:00:37.096Z,1.40
2019-03-05T13:01:37.080Z,1.50
2019-03-05T13:02:37.070Z,1.40
2019-03-05T13:03:37.069Z,1.30
2019-03-05T13:04:37.067Z,1.20
2019-03-05T13:05:37.061Z,1.30
2019-03-05T13:06:37.073Z,1.20
2019-03-05T13:07:37.181Z,1.30
2019-03-05T13:08:37.064Z,1.10
2019-03-05T13:09:37.035Z,1.20
2019-03-05T13:10:37.676Z,1.10
2019-03-05T13:11:37.018Z,1.30
2019-03-05T13:12:39.975Z,1.20
2019-03-05T13:13:37.506Z,1.20
2019-03-05T13:14:38.218Z,1.30
2019-03-05T13:15:37.000Z,1.20
2019-03-05T13:16:39.480Z,1.30
2019-03-05T13:17:37.184Z,1.30
2019-03-05T13:18:36.999Z,1.10